sensor_id;sensor_type;location;lat;lon;timestamp;pressure;altitude;pressure_sealevel;temperature;humidity
9439;BME280;5176;42.622;25.386;2023-04-30T00:00:46;96953.47;;;14.13;76.34
9439;BME280;5176;42.622;25.386;2023-04-30T00:03:15;96952.25;;;14.17;77.21
9439;BME280;5176;42.622;25.386;2023-04-30T00:05:44;96949.38;;;14.20;78.86
9439;BME280;5176;42.622;25.386;2023-04-30T00:08:12;96948.41;;;14.21;78.25
9439;BME280;5176;42.622;25.386;2023-04-30T00:10:41;96941.59;;;14.18;77.53
9439;BME280;5176;42.622;25.386;2023-04-30T00:13:10;96942.53;;;14.17;77.74
9439;BME280;5176;42.622;25.386;2023-04-30T00:15:40;96944.34;;;14.17;77.21
9439;BME280;5176;42.622;25.386;2023-04-30T00:18:10;96935.03;;;14.13;77.38
9439;BME280;5176;42.622;25.386;2023-04-30T00:20:39;96934.00;;;14.04;77.20
9439;BME280;5176;42.622;25.386;2023-04-30T00:23:07;96940.47;;;14.00;76.15
9439;BME280;5176;42.622;25.386;2023-04-30T00:25:36;96937.13;;;13.98;75.46
9439;BME280;5176;42.622;25.386;2023-04-30T00:28:07;96937.13;;;13.98;75.59
9439;BME280;5176;42.622;25.386;2023-04-30T00:30:36;96938.69;;;14.01;75.44
9439;BME280;5176;42.622;25.386;2023-04-30T00:33:05;96940.22;;;14.03;73.62
9439;BME280;5176;42.622;25.386;2023-04-30T00:35:35;96941.31;;;14.01;73.90
9439;BME280;5176;42.622;25.386;2023-04-30T00:38:04;96945.28;;;13.95;75.33
9439;BME280;5176;42.622;25.386;2023-04-30T00:40:33;96936.53;;;13.95;75.92
9439;BME280;5176;42.622;25.386;2023-04-30T00:43:03;96938.84;;;13.88;76.48
9439;BME280;5176;42.622;25.386;2023-04-30T00:45:31;96938.00;;;13.87;76.29
9439;BME280;5176;42.622;25.386;2023-04-30T00:48:00;96933.44;;;13.89;76.88
9439;BME280;5176;42.622;25.386;2023-04-30T00:50:29;96929.84;;;13.90;75.99
9439;BME280;5176;42.622;25.386;2023-04-30T00:52:59;96930.69;;;13.91;74.63
9439;BME280;5176;42.622;25.386;2023-04-30T00:55:28;96927.94;;;13.93;73.38
9439;BME280;5176;42.622;25.386;2023-04-30T00:57:57;96926.13;;;13.93;73.56
9439;BME280;5176;42.622;25.386;2023-04-30T01:00:26;96920.16;;;13.91;73.25
9439;BME280;5176;42.622;25.386;2023-04-30T01:02:55;96903.59;;;13.68;72.85
9439;BME280;5176;42.622;25.386;2023-04-30T01:05:24;96920.66;;;13.85;74.80
9439;BME280;5176;42.622;25.386;2023-04-30T01:07:54;96924.97;;;13.86;74.44
9439;BME280;5176;42.622;25.386;2023-04-30T01:10:31;96920.66;;;13.85;75.97
9439;BME280;5176;42.622;25.386;2023-04-30T01:13:06;96927.13;;;13.81;76.59
9439;BME280;5176;42.622;25.386;2023-04-30T01:15:44;96924.63;;;13.79;78.00
9439;BME280;5176;42.622;25.386;2023-04-30T01:18:20;96920.06;;;13.81;79.19
9439;BME280;5176;42.622;25.386;2023-04-30T01:20:53;96919.72;;;13.75;81.35
9439;BME280;5176;42.622;25.386;2023-04-30T01:23:40;96926.94;;;13.73;82.87
9439;BME280;5176;42.622;25.386;2023-04-30T01:26:18;96925.03;;;13.63;83.57
9439;BME280;5176;42.622;25.386;2023-04-30T01:28:52;96918.59;;;13.56;84.90
9439;BME280;5176;42.622;25.386;2023-04-30T01:31:23;96918.72;;;13.55;85.63
9439;BME280;5176;42.622;25.386;2023-04-30T01:33:52;96914.28;;;13.55;86.32
9439;BME280;5176;42.622;25.386;2023-04-30T01:36:28;96911.78;;;13.54;87.07
9439;BME280;5176;42.622;25.386;2023-04-30T01:39:25;96911.50;;;13.57;86.91
9439;BME280;5176;42.622;25.386;2023-04-30T01:42:06;96916.06;;;13.55;87.06
9439;BME280;5176;42.622;25.386;2023-04-30T01:44:52;96916.44;;;13.50;87.93
9439;BME280;5176;42.622;25.386;2023-04-30T01:47:30;96914.19;;;13.46;88.50
9439;BME280;5176;42.622;25.386;2023-04-30T01:50:09;96920.66;;;13.42;89.22
9439;BME280;5176;42.622;25.386;2023-04-30T01:52:45;96918.84;;;13.42;89.63
9439;BME280;5176;42.622;25.386;2023-04-30T01:55:21;96914.81;;;13.38;89.87
9439;BME280;5176;42.622;25.386;2023-04-30T01:57:56;96911.78;;;13.43;89.47
9439;BME280;5176;42.622;25.386;2023-04-30T02:00:27;96908.81;;;13.47;89.17
9439;BME280;5176;42.622;25.386;2023-04-30T02:02:56;96900.56;;;13.41;88.99
9439;BME280;5176;42.622;25.386;2023-04-30T02:05:25;96915.25;;;13.43;88.37
9439;BME280;5176;42.622;25.386;2023-04-30T02:07:54;96902.84;;;13.45;87.43
9439;BME280;5176;42.622;25.386;2023-04-30T02:10:25;96912.28;;;13.48;85.82
9439;BME280;5176;42.622;25.386;2023-04-30T02:12:54;96903.16;;;13.52;85.81
9439;BME280;5176;42.622;25.386;2023-04-30T02:15:22;96890.09;;;13.50;86.35
9439;BME280;5176;42.622;25.386;2023-04-30T02:17:54;96898.28;;;13.47;87.20
9439;BME280;5176;42.622;25.386;2023-04-30T02:20:22;96900.28;;;13.44;87.83
9439;BME280;5176;42.622;25.386;2023-04-30T02:22:51;96899.38;;;13.45;87.85
9439;BME280;5176;42.622;25.386;2023-04-30T02:25:19;96902.22;;;13.42;88.02
9439;BME280;5176;42.622;25.386;2023-04-30T02:27:48;96904.88;;;13.42;88.17
9439;BME280;5176;42.622;25.386;2023-04-30T02:30:17;96900.44;;;13.42;89.04
9439;BME280;5176;42.622;25.386;2023-04-30T02:32:47;96896.50;;;13.36;87.13
9439;BME280;5176;42.622;25.386;2023-04-30T02:35:18;96903.56;;;13.36;87.06
9439;BME280;5176;42.622;25.386;2023-04-30T02:37:47;96900.91;;;13.36;86.92
9439;BME280;5176;42.622;25.386;2023-04-30T02:40:16;96910.28;;;13.29;86.94
9439;BME280;5176;42.622;25.386;2023-04-30T02:42:45;96899.25;;;13.24;86.64
9439;BME280;5176;42.622;25.386;2023-04-30T02:45:14;96897.25;;;13.27;86.50
9439;BME280;5176;42.622;25.386;2023-04-30T02:47:43;96900.72;;;13.28;87.08
9439;BME280;5176;42.622;25.386;2023-04-30T02:50:12;96900.00;;;13.26;86.14
9439;BME280;5176;42.622;25.386;2023-04-30T02:52:43;96905.63;;;13.21;86.11
9439;BME280;5176;42.622;25.386;2023-04-30T02:55:12;96907.75;;;13.16;87.09
9439;BME280;5176;42.622;25.386;2023-04-30T02:57:41;96913.00;;;13.16;88.29
9439;BME280;5176;42.622;25.386;2023-04-30T03:00:11;96911.47;;;13.14;89.21
9439;BME280;5176;42.622;25.386;2023-04-30T03:02:40;96916.72;;;13.14;89.69
9439;BME280;5176;42.622;25.386;2023-04-30T03:05:10;96907.78;;;13.05;88.84
9439;BME280;5176;42.622;25.386;2023-04-30T03:07:39;96905.59;;;13.10;89.35
9439;BME280;5176;42.622;25.386;2023-04-30T03:10:10;96902.50;;;13.05;90.83
9439;BME280;5176;42.622;25.386;2023-04-30T03:12:39;96916.38;;;13.07;91.25
9439;BME280;5176;42.622;25.386;2023-04-30T03:15:09;96913.75;;;13.07;91.59
9439;BME280;5176;42.622;25.386;2023-04-30T03:17:37;96912.66;;;13.09;92.55
9439;BME280;5176;42.622;25.386;2023-04-30T03:20:07;96919.59;;;13.10;93.34
9439;BME280;5176;42.622;25.386;2023-04-30T03:22:36;96917.56;;;13.03;94.20
9439;BME280;5176;42.622;25.386;2023-04-30T03:25:06;96912.69;;;12.98;94.05
9439;BME280;5176;42.622;25.386;2023-04-30T03:27:36;96910.41;;;12.94;94.45
9439;BME280;5176;42.622;25.386;2023-04-30T03:30:06;96910.28;;;12.95;95.89
9439;BME280;5176;42.622;25.386;2023-04-30T03:32:35;96908.13;;;13.00;95.13
9439;BME280;5176;42.622;25.386;2023-04-30T03:35:05;96912.78;;;13.08;95.41
9439;BME280;5176;42.622;25.386;2023-04-30T03:37:35;96917.81;;;13.11;95.75
9439;BME280;5176;42.622;25.386;2023-04-30T03:40:06;96923.53;;;13.16;96.71
9439;BME280;5176;42.622;25.386;2023-04-30T03:42:36;96920.31;;;13.13;97.69
9439;BME280;5176;42.622;25.386;2023-04-30T03:45:06;96915.63;;;13.16;97.35
9439;BME280;5176;42.622;25.386;2023-04-30T03:47:35;96926.41;;;13.13;94.05
9439;BME280;5176;42.622;25.386;2023-04-30T03:50:05;96923.09;;;13.11;94.30
9439;BME280;5176;42.622;25.386;2023-04-30T03:52:35;96921.28;;;13.12;95.67
9439;BME280;5176;42.622;25.386;2023-04-30T03:55:05;96931.31;;;13.06;94.93
9439;BME280;5176;42.622;25.386;2023-04-30T03:57:37;96929.53;;;13.07;94.90
9439;BME280;5176;42.622;25.386;2023-04-30T04:00:07;96934.94;;;13.05;95.01
9439;BME280;5176;42.622;25.386;2023-04-30T04:02:36;96936.47;;;13.08;94.96
9439;BME280;5176;42.622;25.386;2023-04-30T04:05:05;96945.31;;;13.07;94.28
9439;BME280;5176;42.622;25.386;2023-04-30T04:07:35;96944.50;;;13.06;96.48
9439;BME280;5176;42.622;25.386;2023-04-30T04:10:04;96946.28;;;13.06;96.86
9439;BME280;5176;42.622;25.386;2023-04-30T04:12:33;96951.41;;;13.07;97.50
9439;BME280;5176;42.622;25.386;2023-04-30T04:15:04;96948.22;;;13.04;98.31
9439;BME280;5176;42.622;25.386;2023-04-30T04:17:33;96948.09;;;13.05;98.82
9439;BME280;5176;42.622;25.386;2023-04-30T04:20:02;96947.34;;;13.03;98.92
9439;BME280;5176;42.622;25.386;2023-04-30T04:22:32;96944.63;;;13.05;99.51
9439;BME280;5176;42.622;25.386;2023-04-30T04:25:01;96939.22;;;13.06;99.18
9439;BME280;5176;42.622;25.386;2023-04-30T04:27:29;96937.16;;;13.10;100.00
9439;BME280;5176;42.622;25.386;2023-04-30T04:29:59;96932.03;;;13.20;100.00
9439;BME280;5176;42.622;25.386;2023-04-30T04:32:29;96938.38;;;13.28;100.00
9439;BME280;5176;42.622;25.386;2023-04-30T04:34:59;96941.50;;;13.33;99.47
9439;BME280;5176;42.622;25.386;2023-04-30T04:37:27;96943.31;;;13.33;98.46
9439;BME280;5176;42.622;25.386;2023-04-30T04:39:56;96934.31;;;13.35;99.22
9439;BME280;5176;42.622;25.386;2023-04-30T04:42:26;96939.22;;;13.40;99.29
9439;BME280;5176;42.622;25.386;2023-04-30T04:44:55;96941.38;;;13.46;97.33
9439;BME280;5176;42.622;25.386;2023-04-30T04:47:24;96935.00;;;13.49;96.48
9439;BME280;5176;42.622;25.386;2023-04-30T04:49:55;96935.72;;;13.51;94.90
9439;BME280;5176;42.622;25.386;2023-04-30T04:52:24;96941.31;;;13.57;94.62
9439;BME280;5176;42.622;25.386;2023-04-30T04:54:54;96946.69;;;13.67;94.00
9439;BME280;5176;42.622;25.386;2023-04-30T04:57:23;96949.81;;;13.72;93.61
9439;BME280;5176;42.622;25.386;2023-04-30T04:59:51;96953.59;;;13.79;93.02
9439;BME280;5176;42.622;25.386;2023-04-30T05:02:20;96941.34;;;13.89;92.16
9439;BME280;5176;42.622;25.386;2023-04-30T05:04:49;96950.31;;;13.98;91.76
9439;BME280;5176;42.622;25.386;2023-04-30T05:07:19;96950.88;;;14.02;88.81
9439;BME280;5176;42.622;25.386;2023-04-30T05:09:48;96952.75;;;14.11;89.21
9439;BME280;5176;42.622;25.386;2023-04-30T05:12:17;96952.72;;;14.22;89.03
9439;BME280;5176;42.622;25.386;2023-04-30T05:14:46;96947.63;;;14.30;88.48
9439;BME280;5176;42.622;25.386;2023-04-30T05:17:15;96949.50;;;14.39;85.60
9439;BME280;5176;42.622;25.386;2023-04-30T05:19:44;96946.38;;;14.45;82.13
9439;BME280;5176;42.622;25.386;2023-04-30T05:22:14;96944.59;;;14.46;82.67
9439;BME280;5176;42.622;25.386;2023-04-30T05:24:44;96953.78;;;14.52;82.73
9439;BME280;5176;42.622;25.386;2023-04-30T05:27:13;96959.72;;;14.65;81.77
9439;BME280;5176;42.622;25.386;2023-04-30T05:29:42;96954.16;;;14.68;79.83
9439;BME280;5176;42.622;25.386;2023-04-30T05:32:10;96954.66;;;14.83;78.63
9439;BME280;5176;42.622;25.386;2023-04-30T05:34:39;96952.53;;;14.77;75.94
9439;BME280;5176;42.622;25.386;2023-04-30T05:37:08;96956.78;;;14.89;74.96
9439;BME280;5176;42.622;25.386;2023-04-30T05:39:38;96959.19;;;15.02;72.43
9439;BME280;5176;42.622;25.386;2023-04-30T05:42:09;96954.63;;;15.04;67.97
9439;BME280;5176;42.622;25.386;2023-04-30T05:44:37;96955.81;;;15.20;65.01
9439;BME280;5176;42.622;25.386;2023-04-30T05:47:06;96957.19;;;15.24;62.54
9439;BME280;5176;42.622;25.386;2023-04-30T05:49:34;96952.66;;;15.36;63.61
9439;BME280;5176;42.622;25.386;2023-04-30T05:52:03;96951.88;;;15.45;62.92
9439;BME280;5176;42.622;25.386;2023-04-30T05:54:32;96953.41;;;15.58;62.62
9439;BME280;5176;42.622;25.386;2023-04-30T05:57:01;96950.44;;;15.72;62.50
9439;BME280;5176;42.622;25.386;2023-04-30T05:59:31;96956.97;;;15.87;61.90
9439;BME280;5176;42.622;25.386;2023-04-30T06:02:00;96950.00;;;15.96;62.60
9439;BME280;5176;42.622;25.386;2023-04-30T06:04:29;96947.22;;;16.17;61.30
9439;BME280;5176;42.622;25.386;2023-04-30T06:06:58;96958.91;;;16.24;58.56
9439;BME280;5176;42.622;25.386;2023-04-30T06:09:27;96953.22;;;16.28;58.58
9439;BME280;5176;42.622;25.386;2023-04-30T06:11:55;96948.91;;;16.47;60.37
9439;BME280;5176;42.622;25.386;2023-04-30T06:14:24;96955.25;;;16.63;57.31
9439;BME280;5176;42.622;25.386;2023-04-30T06:16:55;96956.38;;;16.61;56.39
9439;BME280;5176;42.622;25.386;2023-04-30T06:19:24;96952.34;;;16.67;56.72
9439;BME280;5176;42.622;25.386;2023-04-30T06:21:52;96954.84;;;16.68;56.98
9439;BME280;5176;42.622;25.386;2023-04-30T06:24:21;96957.47;;;16.87;56.92
9439;BME280;5176;42.622;25.386;2023-04-30T06:26:49;96957.00;;;17.02;55.98
9439;BME280;5176;42.622;25.386;2023-04-30T06:29:18;96960.72;;;17.19;54.67
9439;BME280;5176;42.622;25.386;2023-04-30T06:31:47;96960.25;;;17.33;54.12
9439;BME280;5176;42.622;25.386;2023-04-30T06:34:18;96960.34;;;17.41;54.23
9439;BME280;5176;42.622;25.386;2023-04-30T06:36:46;96959.28;;;17.52;54.56
9439;BME280;5176;42.622;25.386;2023-04-30T06:39:15;96957.78;;;17.77;53.54
9439;BME280;5176;42.622;25.386;2023-04-30T06:41:45;96957.34;;;17.81;53.87
9439;BME280;5176;42.622;25.386;2023-04-30T06:44:14;96945.47;;;18.03;53.41
9439;BME280;5176;42.622;25.386;2023-04-30T06:46:43;96943.59;;;18.13;52.58
9439;BME280;5176;42.622;25.386;2023-04-30T06:49:12;96945.97;;;18.24;51.76
9439;BME280;5176;42.622;25.386;2023-04-30T06:51:43;96949.41;;;18.35;49.77
9439;BME280;5176;42.622;25.386;2023-04-30T06:54:12;96950.66;;;18.48;51.37
9439;BME280;5176;42.622;25.386;2023-04-30T06:56:41;96954.25;;;18.65;49.82
9439;BME280;5176;42.622;25.386;2023-04-30T06:59:11;96957.50;;;18.69;48.57
9439;BME280;5176;42.622;25.386;2023-04-30T07:01:39;96948.25;;;18.73;48.02
9439;BME280;5176;42.622;25.386;2023-04-30T07:04:08;96944.69;;;18.90;47.83
9439;BME280;5176;42.622;25.386;2023-04-30T07:06:37;96957.91;;;19.08;47.83
9439;BME280;5176;42.622;25.386;2023-04-30T07:09:07;96950.81;;;19.17;48.52
9439;BME280;5176;42.622;25.386;2023-04-30T07:11:36;96959.94;;;19.14;48.00
9439;BME280;5176;42.622;25.386;2023-04-30T07:14:05;96955.22;;;19.34;47.42
9439;BME280;5176;42.622;25.386;2023-04-30T07:16:34;96958.00;;;19.58;47.10
9439;BME280;5176;42.622;25.386;2023-04-30T07:19:03;96950.56;;;19.70;45.52
9439;BME280;5176;42.622;25.386;2023-04-30T07:21:32;96960.38;;;19.70;43.64
9439;BME280;5176;42.622;25.386;2023-04-30T07:24:01;96954.03;;;19.71;43.67
9439;BME280;5176;42.622;25.386;2023-04-30T07:26:31;96953.75;;;19.82;43.83
9439;BME280;5176;42.622;25.386;2023-04-30T07:29:00;96951.28;;;20.05;43.28
9439;BME280;5176;42.622;25.386;2023-04-30T07:31:29;96952.16;;;20.22;43.18
9439;BME280;5176;42.622;25.386;2023-04-30T07:33:58;96949.69;;;20.28;42.65
9439;BME280;5176;42.622;25.386;2023-04-30T07:36:26;96949.84;;;20.43;43.05
9439;BME280;5176;42.622;25.386;2023-04-30T07:38:55;96948.22;;;20.50;40.84
9439;BME280;5176;42.622;25.386;2023-04-30T07:41:24;96949.69;;;20.69;40.83
9439;BME280;5176;42.622;25.386;2023-04-30T07:43:56;96950.00;;;20.66;41.33
9439;BME280;5176;42.622;25.386;2023-04-30T07:46:25;96958.16;;;20.73;40.06
9439;BME280;5176;42.622;25.386;2023-04-30T07:48:54;96952.19;;;20.71;40.70
9439;BME280;5176;42.622;25.386;2023-04-30T07:51:22;96955.31;;;20.90;40.29
9439;BME280;5176;42.622;25.386;2023-04-30T07:53:51;96953.09;;;21.18;40.10
9439;BME280;5176;42.622;25.386;2023-04-30T07:56:20;96958.41;;;21.35;40.23
9439;BME280;5176;42.622;25.386;2023-04-30T07:58:49;96947.44;;;21.21;40.53
9439;BME280;5176;42.622;25.386;2023-04-30T08:01:20;96951.84;;;21.54;39.96
9439;BME280;5176;42.622;25.386;2023-04-30T08:03:49;96944.78;;;21.69;38.90
9439;BME280;5176;42.622;25.386;2023-04-30T08:06:18;96947.63;;;21.67;39.14
9439;BME280;5176;42.622;25.386;2023-04-30T08:08:46;96944.59;;;21.70;37.85
9439;BME280;5176;42.622;25.386;2023-04-30T08:11:15;96940.81;;;21.57;37.99
9439;BME280;5176;42.622;25.386;2023-04-30T08:13:44;96949.41;;;21.75;38.55
9439;BME280;5176;42.622;25.386;2023-04-30T08:16:12;96938.38;;;21.78;38.10
9439;BME280;5176;42.622;25.386;2023-04-30T08:18:44;96943.72;;;22.09;38.06
9439;BME280;5176;42.622;25.386;2023-04-30T08:21:12;96942.75;;;22.02;37.36
9439;BME280;5176;42.622;25.386;2023-04-30T08:23:41;96939.44;;;21.30;38.37
9439;BME280;5176;42.622;25.386;2023-04-30T08:26:10;96937.28;;;21.64;38.80
9439;BME280;5176;42.622;25.386;2023-04-30T08:28:38;96943.53;;;21.80;37.04
9439;BME280;5176;42.622;25.386;2023-04-30T08:31:07;96938.41;;;22.09;37.61
9439;BME280;5176;42.622;25.386;2023-04-30T08:33:36;96934.38;;;22.36;37.26
9439;BME280;5176;42.622;25.386;2023-04-30T08:36:08;96925.94;;;22.47;37.39
9439;BME280;5176;42.622;25.386;2023-04-30T08:38:37;96936.34;;;22.57;36.31
9439;BME280;5176;42.622;25.386;2023-04-30T08:41:09;96930.53;;;22.53;36.17
9439;BME280;5176;42.622;25.386;2023-04-30T08:43:39;96931.19;;;22.55;37.16
9439;BME280;5176;42.622;25.386;2023-04-30T08:46:08;96929.81;;;22.60;36.58
9439;BME280;5176;42.622;25.386;2023-04-30T08:48:40;96928.94;;;22.67;36.93
9439;BME280;5176;42.622;25.386;2023-04-30T08:51:10;96904.66;;;21.85;36.87
9439;BME280;5176;42.622;25.386;2023-04-30T08:53:39;96915.38;;;22.31;37.25
9439;BME280;5176;42.622;25.386;2023-04-30T08:56:10;96924.56;;;22.66;36.55
9439;BME280;5176;42.622;25.386;2023-04-30T08:58:39;96930.56;;;22.91;35.70
9439;BME280;5176;42.622;25.386;2023-04-30T09:01:09;96922.72;;;22.90;36.27
9439;BME280;5176;42.622;25.386;2023-04-30T09:03:39;96920.25;;;22.80;36.13
9439;BME280;5176;42.622;25.386;2023-04-30T09:06:13;96917.72;;;22.87;35.57
9439;BME280;5176;42.622;25.386;2023-04-30T09:08:43;96921.44;;;23.00;35.75
9439;BME280;5176;42.622;25.386;2023-04-30T09:11:24;96916.19;;;23.07;36.61
9439;BME280;5176;42.622;25.386;2023-04-30T09:13:54;96911.41;;;23.17;34.47
9439;BME280;5176;42.622;25.386;2023-04-30T09:16:24;96914.91;;;23.03;34.88
9439;BME280;5176;42.622;25.386;2023-04-30T09:18:53;96910.16;;;22.75;35.59
9439;BME280;5176;42.622;25.386;2023-04-30T09:21:32;96914.72;;;22.67;35.71
9439;BME280;5176;42.622;25.386;2023-04-30T09:24:03;96908.78;;;22.42;37.04
9439;BME280;5176;42.622;25.386;2023-04-30T09:26:33;96903.78;;;22.39;36.21
9439;BME280;5176;42.622;25.386;2023-04-30T09:29:02;96901.38;;;22.29;35.32
9439;BME280;5176;42.622;25.386;2023-04-30T09:31:34;96903.94;;;22.22;35.61
9439;BME280;5176;42.622;25.386;2023-04-30T09:34:03;96902.88;;;22.09;35.21
9439;BME280;5176;42.622;25.386;2023-04-30T09:36:34;96908.31;;;21.53;36.25
9439;BME280;5176;42.622;25.386;2023-04-30T09:39:08;96900.78;;;21.34;36.78
9439;BME280;5176;42.622;25.386;2023-04-30T09:41:37;96896.75;;;20.82;37.13
9439;BME280;5176;42.622;25.386;2023-04-30T09:44:06;96898.44;;;20.59;37.63
9439;BME280;5176;42.622;25.386;2023-04-30T09:46:35;96902.25;;;20.73;37.96
9439;BME280;5176;42.622;25.386;2023-04-30T09:49:05;96892.22;;;20.91;37.54
9439;BME280;5176;42.622;25.386;2023-04-30T09:51:53;96886.31;;;21.20;36.92
9439;BME280;5176;42.622;25.386;2023-04-30T09:54:24;96889.94;;;21.35;36.18
9439;BME280;5176;42.622;25.386;2023-04-30T09:56:55;96892.31;;;21.53;37.06
9439;BME280;5176;42.622;25.386;2023-04-30T09:59:27;96891.47;;;21.61;36.65
9439;BME280;5176;42.622;25.386;2023-04-30T10:01:58;96890.09;;;21.65;35.95
9439;BME280;5176;42.622;25.386;2023-04-30T10:04:29;96893.38;;;21.75;36.52
9439;BME280;5176;42.622;25.386;2023-04-30T10:07:03;96885.69;;;21.80;36.35
9439;BME280;5176;42.622;25.386;2023-04-30T10:09:38;96893.69;;;21.80;37.00
9439;BME280;5176;42.622;25.386;2023-04-30T10:12:12;96895.50;;;21.80;36.49
9439;BME280;5176;42.622;25.386;2023-04-30T10:14:47;96891.03;;;21.80;41.13
9439;BME280;5176;42.622;25.386;2023-04-30T10:17:19;96889.31;;;21.87;41.27
9439;BME280;5176;42.622;25.386;2023-04-30T10:19:51;96890.66;;;21.83;42.10
9439;BME280;5176;42.622;25.386;2023-04-30T10:22:25;96896.00;;;21.83;40.17
9439;BME280;5176;42.622;25.386;2023-04-30T10:24:53;96899.75;;;21.66;40.38
9439;BME280;5176;42.622;25.386;2023-04-30T10:27:23;96900.91;;;21.32;40.46
9439;BME280;5176;42.622;25.386;2023-04-30T10:29:53;96894.16;;;21.05;42.12
9439;BME280;5176;42.622;25.386;2023-04-30T10:32:23;96894.19;;;20.97;41.28
9439;BME280;5176;42.622;25.386;2023-04-30T10:35:03;96886.94;;;20.75;42.28
9439;BME280;5176;42.622;25.386;2023-04-30T10:37:42;96890.75;;;20.72;42.38
9439;BME280;5176;42.622;25.386;2023-04-30T10:40:13;96886.13;;;20.74;42.81
9439;BME280;5176;42.622;25.386;2023-04-30T10:42:47;96876.91;;;20.85;40.93
9439;BME280;5176;42.622;25.386;2023-04-30T10:45:16;96885.59;;;21.26;41.51
9439;BME280;5176;42.622;25.386;2023-04-30T10:47:46;96875.53;;;21.44;40.29
9439;BME280;5176;42.622;25.386;2023-04-30T10:50:15;96874.22;;;21.71;40.30
9439;BME280;5176;42.622;25.386;2023-04-30T10:53:00;96867.97;;;22.10;37.80
9439;BME280;5176;42.622;25.386;2023-04-30T10:55:31;96878.50;;;22.49;38.47
9439;BME280;5176;42.622;25.386;2023-04-30T10:58:22;96868.34;;;22.97;37.47
9439;BME280;5176;42.622;25.386;2023-04-30T11:00:59;96870.81;;;23.14;35.18
9439;BME280;5176;42.622;25.386;2023-04-30T11:03:30;96864.31;;;23.01;35.06
9439;BME280;5176;42.622;25.386;2023-04-30T11:06:00;96863.28;;;23.02;36.31
9439;BME280;5176;42.622;25.386;2023-04-30T11:08:35;96859.91;;;22.85;35.97
9439;BME280;5176;42.622;25.386;2023-04-30T11:11:04;96866.63;;;22.67;35.73
9439;BME280;5176;42.622;25.386;2023-04-30T11:13:43;96865.44;;;22.69;35.58
9439;BME280;5176;42.622;25.386;2023-04-30T11:16:12;96863.31;;;22.65;35.32
9439;BME280;5176;42.622;25.386;2023-04-30T11:18:42;96844.28;;;22.82;35.92
9439;BME280;5176;42.622;25.386;2023-04-30T11:21:12;96859.13;;;23.29;34.29
9439;BME280;5176;42.622;25.386;2023-04-30T11:23:48;96856.56;;;23.57;32.55
9439;BME280;5176;42.622;25.386;2023-04-30T11:26:19;96850.28;;;23.65;33.03
9439;BME280;5176;42.622;25.386;2023-04-30T11:28:50;96858.00;;;23.60;32.76
9439;BME280;5176;42.622;25.386;2023-04-30T11:31:20;96856.97;;;23.39;31.90
9439;BME280;5176;42.622;25.386;2023-04-30T11:33:50;96855.34;;;23.09;30.70
9439;BME280;5176;42.622;25.386;2023-04-30T11:36:20;96847.97;;;22.81;32.02
9439;BME280;5176;42.622;25.386;2023-04-30T11:38:52;96850.53;;;22.75;32.18
9439;BME280;5176;42.622;25.386;2023-04-30T11:41:22;96845.34;;;22.73;32.51
9439;BME280;5176;42.622;25.386;2023-04-30T11:43:53;96845.72;;;22.70;34.05
9439;BME280;5176;42.622;25.386;2023-04-30T11:46:22;96839.88;;;22.90;32.45
9439;BME280;5176;42.622;25.386;2023-04-30T11:48:50;96838.34;;;23.31;32.87
9439;BME280;5176;42.622;25.386;2023-04-30T11:51:20;96828.97;;;23.57;31.16
9439;BME280;5176;42.622;25.386;2023-04-30T11:53:52;96836.16;;;23.92;31.81
9439;BME280;5176;42.622;25.386;2023-04-30T11:56:21;96834.94;;;24.16;31.28
9439;BME280;5176;42.622;25.386;2023-04-30T11:58:51;96844.31;;;24.06;31.63
9439;BME280;5176;42.622;25.386;2023-04-30T12:01:26;96835.66;;;24.04;31.32
9439;BME280;5176;42.622;25.386;2023-04-30T12:03:55;96830.78;;;24.14;31.05
9439;BME280;5176;42.622;25.386;2023-04-30T12:06:26;96832.75;;;24.27;30.21
9439;BME280;5176;42.622;25.386;2023-04-30T12:08:58;96831.56;;;24.29;29.38
9439;BME280;5176;42.622;25.386;2023-04-30T12:11:28;96827.50;;;23.90;29.50
9439;BME280;5176;42.622;25.386;2023-04-30T12:14:00;96836.09;;;23.86;30.34
9439;BME280;5176;42.622;25.386;2023-04-30T12:16:38;96831.00;;;23.91;31.02
9439;BME280;5176;42.622;25.386;2023-04-30T12:19:07;96832.97;;;24.04;30.75
9439;BME280;5176;42.622;25.386;2023-04-30T12:21:37;96829.69;;;24.51;31.27
9439;BME280;5176;42.622;25.386;2023-04-30T12:24:10;96827.50;;;24.61;30.85
9439;BME280;5176;42.622;25.386;2023-04-30T12:26:39;96825.88;;;24.17;30.15
9439;BME280;5176;42.622;25.386;2023-04-30T12:29:09;96825.78;;;23.61;30.70
9439;BME280;5176;42.622;25.386;2023-04-30T12:31:38;96829.22;;;23.26;31.32
9439;BME280;5176;42.622;25.386;2023-04-30T12:34:08;96834.91;;;23.01;31.79
9439;BME280;5176;42.622;25.386;2023-04-30T12:36:38;96834.50;;;22.75;32.77
9439;BME280;5176;42.622;25.386;2023-04-30T12:39:12;96834.66;;;22.58;34.10
9439;BME280;5176;42.622;25.386;2023-04-30T12:41:42;96835.78;;;22.49;34.92
9439;BME280;5176;42.622;25.386;2023-04-30T12:44:17;96840.19;;;22.72;34.44
9439;BME280;5176;42.622;25.386;2023-04-30T12:46:46;96835.88;;;23.00;35.09
9439;BME280;5176;42.622;25.386;2023-04-30T12:49:24;96833.41;;;22.99;35.59
9439;BME280;5176;42.622;25.386;2023-04-30T12:51:57;96841.50;;;22.76;37.25
9439;BME280;5176;42.622;25.386;2023-04-30T12:54:30;96840.63;;;22.46;37.59
9439;BME280;5176;42.622;25.386;2023-04-30T12:57:01;96839.13;;;22.14;37.60
9439;BME280;5176;42.622;25.386;2023-04-30T12:59:31;96827.88;;;22.18;36.53
9439;BME280;5176;42.622;25.386;2023-04-30T13:02:10;96836.44;;;22.14;36.14
9439;BME280;5176;42.622;25.386;2023-04-30T13:04:39;96837.09;;;22.16;34.79
9439;BME280;5176;42.622;25.386;2023-04-30T13:07:09;96833.94;;;21.89;34.42
9439;BME280;5176;42.622;25.386;2023-04-30T13:09:39;96839.03;;;21.45;34.27
9439;BME280;5176;42.622;25.386;2023-04-30T13:12:07;96829.53;;;21.11;36.32
9439;BME280;5176;42.622;25.386;2023-04-30T13:14:36;96833.16;;;21.18;38.27
9439;BME280;5176;42.622;25.386;2023-04-30T13:17:05;96822.44;;;20.95;41.43
9439;BME280;5176;42.622;25.386;2023-04-30T13:19:35;96822.97;;;20.83;43.64
9439;BME280;5176;42.622;25.386;2023-04-30T13:22:04;96835.63;;;20.89;41.28
9439;BME280;5176;42.622;25.386;2023-04-30T13:24:32;96831.25;;;20.96;38.92
9439;BME280;5176;42.622;25.386;2023-04-30T13:27:02;96837.38;;;21.05;38.77